Time;durP1;ratioP1;P1;durP2;ratioP2;P2;SDS_P1;SDS_P2;PMS_P1;PMS_P2;Temp;Humidity;BMP_temperature;BMP_pressure;BME280_temperature;BME280_humidity;BME280_pressure;Samples;Min_cycle;Max_cycle;Signal;HPM_P1;HPM_P2
2021/03/29 00:00:29;;;;;;;;;;;;;;;5.88;54.46;101560.06;1741919;82;20211;-55
2021/03/29 00:03:33;;;;;;;;;;;;;;;5.90;54.54;101562.66;1745441;82;20207;-54
2021/03/29 00:06:36;;;;;;;;;;;;;;;5.92;54.46;101582.44;1745345;82;20204;-55
2021/03/29 00:09:43;;;;;;;;;;;;;;;5.89;54.50;101557.73;1745635;82;20211;-55
2021/03/29 00:12:50;;;;;;;;;;;;;;;5.87;54.50;101562.41;1745426;82;20266;-56
2021/03/29 00:15:56;;;;;;;;;;;;;;;5.84;54.57;101567.20;1745568;82;20215;-55
2021/03/29 00:19:01;;;;;;;;;;;;;;;5.83;54.85;101555.97;1745362;82;20243;-54
2021/03/29 00:22:06;;;;;;;;;;;;;;;5.81;54.86;101550.62;1745486;82;20228;-55
2021/03/29 00:25:13;;;;;;;;;;;;;;;5.80;54.98;101564.33;1745364;82;20208;-54
2021/03/29 00:28:17;;;;;;;;;;;;;;;5.79;54.96;101559.86;1745244;82;20203;-54
2021/03/29 00:31:21;;;;;;;;;;;;;;;5.79;55.05;101563.93;1745429;82;20219;-55
2021/03/29 00:34:25;;;;;;;;;;;;;;;5.79;55.02;101555.78;1745442;82;20595;-54
2021/03/29 00:37:29;;;;;;;;;;;;;;;5.78;55.04;101555.42;1745338;82;20227;-54
2021/03/29 00:40:34;;;;;;;;;;;;;;;5.78;55.09;101554.06;1745311;82;20246;-54
2021/03/29 00:43:39;;;;;;;;;;;;;;;5.78;55.17;101549.98;1665936;85;20323;-54
2021/03/29 00:46:45;;;;;;;;;;;;;;;5.76;55.11;101549.23;1711826;83;20231;-55
2021/03/29 00:49:52;;;;;;;;;;;;;;;5.72;55.22;101547.74;1711778;83;20242;-54
2021/03/29 00:52:56;;;;;;;;;;;;;;;5.68;55.26;101552.53;1711662;84;20232;-58
2021/03/29 00:56:00;;;;;;;;;;;;;;;5.63;55.47;101559.28;1711656;84;20220;-55
2021/03/29 00:59:06;;;;;;;;;;;;;;;5.59;55.51;101557.80;1691434;84;20331;-55
2021/03/29 01:02:11;;;;;;;;;;;;;;;5.59;55.70;101564.59;1711700;84;20227;-54
2021/03/29 01:05:19;;;;;;;;;;;;;;;5.58;55.73;101564.22;1711888;83;20338;-55
2021/03/29 01:08:24;;;;;;;;;;;;;;;5.56;55.74;101560.74;1711583;84;20248;-55
2021/03/29 01:11:31;;;;;;;;;;;;;;;5.50;55.94;101562.57;1711689;84;20275;-55
2021/03/29 01:14:39;;;;;;;;;;;;;;;5.44;56.06;101560.32;1712013;83;20644;-54
2021/03/29 01:17:43;;;;;;;;;;;;;;;5.37;56.10;101557.19;1711588;84;20224;-55
2021/03/29 01:21:12;;;;;;;;;;;;;;;5.24;56.41;101564.98;1711734;83;20290;-55
2021/03/29 01:24:27;;;;;;;;;;;;;;;5.15;56.62;101560.23;1711495;84;20200;-54
2021/03/29 01:27:36;;;;;;;;;;;;;;;5.13;56.92;101567.62;1711712;83;20667;-54
2021/03/29 01:30:44;;;;;;;;;;;;;;;5.12;56.87;101566.74;1711674;84;20255;-55
2021/03/29 01:33:47;;;;;;;;;;;;;;;5.14;57.18;101573.45;1711667;84;20263;-55
2021/03/29 01:36:51;;;;;;;;;;;;;;;5.16;57.13;101570.98;1711793;83;20196;-54
2021/03/29 01:39:56;;;;;;;;;;;;;;;5.13;57.23;101570.33;1711571;84;20240;-55
2021/03/29 01:43:01;;;;;;;;;;;;;;;5.13;57.37;101563.55;1731402;82;20199;-54
2021/03/29 01:46:06;;;;;;;;;;;;;;;5.17;57.33;101563.72;1747643;82;20287;-54
2021/03/29 01:49:09;;;;;;;;;;;;;;;5.21;57.25;101567.92;1747956;81;20487;-55
2021/03/29 01:52:14;;;;;;;;;;;;;;;5.22;57.25;101569.17;1747997;82;20636;-54
2021/03/29 01:55:19;;;;;;;;;;;;;;;5.24;57.40;101565.86;1747805;82;20207;-54
2021/03/29 01:58:25;;;;;;;;;;;;;;;5.24;57.14;101567.22;1748171;81;20651;-54
2021/03/29 02:01:29;;;;;;;;;;;;;;;5.19;57.33;101565.33;1748149;81;20615;-54
2021/03/29 02:04:33;;;;;;;;;;;;;;;5.16;57.42;101563.32;1747853;81;20291;-54
2021/03/29 02:07:38;;;;;;;;;;;;;;;5.17;57.35;101560.48;1747792;81;20204;-54
2021/03/29 02:10:44;;;;;;;;;;;;;;;5.19;57.25;101553.59;1748178;81;20351;-54
2021/03/29 02:13:51;;;;;;;;;;;;;;;5.19;57.20;101556.30;1747964;81;20279;-54
2021/03/29 02:16:56;;;;;;;;;;;;;;;5.20;57.16;101549.41;1747872;81;20192;-54
2021/03/29 02:20:00;;;;;;;;;;;;;;;5.17;57.18;101553.70;1748660;81;20318;-54
2021/03/29 02:23:04;;;;;;;;;;;;;;;5.15;57.28;101552.97;1747836;82;20651;-54
2021/03/29 02:26:10;;;;;;;;;;;;;;;5.14;57.35;101545.79;1747687;82;20283;-54
2021/03/29 02:29:14;;;;;;;;;;;;;;;5.13;57.35;101551.33;1748327;81;20635;-54
2021/03/29 02:32:17;;;;;;;;;;;;;;;5.10;57.45;101550.20;1747708;82;20199;-54
2021/03/29 02:35:22;;;;;;;;;;;;;;;5.07;57.53;101551.31;1747951;81;20631;-54
2021/03/29 02:38:27;;;;;;;;;;;;;;;5.07;57.61;101556.73;1747702;81;20311;-54
2021/03/29 02:41:33;;;;;;;;;;;;;;;5.06;57.66;101554.98;1747676;82;20314;-54
2021/03/29 02:44:37;;;;;;;;;;;;;;;5.05;57.74;101555.09;1742785;80;20616;-54
2021/03/29 02:47:41;;;;;;;;;;;;;;;5.04;57.82;101558.33;1722997;82;20208;-53
2021/03/29 02:50:48;;;;;;;;;;;;;;;5.03;57.85;101557.05;1739588;82;20564;-54
2021/03/29 02:53:54;;;;;;;;;;;;;;;5.02;57.89;101555.33;1740345;82;20227;-54
2021/03/29 02:56:58;;;;;;;;;;;;;;;5.01;57.99;101555.80;1740335;82;20247;-54
2021/03/29 03:00:01;;;;;;;;;;;;;;;5.01;58.05;101557.67;1740174;82;20291;-54
2021/03/29 03:03:08;;;;;;;;;;;;;;;5.01;58.08;101557.67;1740154;82;20386;-54
2021/03/29 03:06:12;;;;;;;;;;;;;;;4.99;58.08;101562.34;1739918;82;20258;-54
2021/03/29 03:09:17;;;;;;;;;;;;;;;4.92;58.16;101553.77;1710423;84;20210;-54
2021/03/29 03:12:21;;;;;;;;;;;;;;;4.87;58.25;101565.95;1710821;83;20221;-55
2021/03/29 03:15:29;;;;;;;;;;;;;;;4.84;58.47;101564.78;1710377;83;20206;-54
2021/03/29 03:18:35;;;;;;;;;;;;;;;4.83;58.56;101569.84;1710322;83;20210;-54
2021/03/29 03:21:40;;;;;;;;;;;;;;;4.80;58.67;101570.06;1711142;83;20214;-55
2021/03/29 03:24:44;;;;;;;;;;;;;;;4.79;58.80;101566.99;1710686;83;20218;-54
2021/03/29 03:27:51;;;;;;;;;;;;;;;4.75;58.95;101569.05;1710241;83;20298;-56
2021/03/29 03:31:00;;;;;;;;;;;;;;;4.74;59.04;101570.52;1710326;83;20206;-55
2021/03/29 03:34:03;;;;;;;;;;;;;;;4.73;59.15;101574.19;1711167;83;20215;-55
2021/03/29 03:37:07;;;;;;;;;;;;;;;4.70;59.30;101575.77;1710623;83;20214;-55
2021/03/29 03:40:12;;;;;;;;;;;;;;;4.69;59.46;101590.31;1711149;83;20245;-54
2021/03/29 03:43:17;;;;;;;;;;;;;;;4.68;59.55;101583.16;1710528;83;20202;-54
2021/03/29 03:46:47;;;;;;;;;;;;;;;4.68;59.52;101589.95;1684945;84;20446;-54
2021/03/29 03:49:50;;;;;;;;;;;;;;;4.67;59.48;101600.39;1684662;84;20262;-55
2021/03/29 03:52:55;;;;;;;;;;;;;;;4.60;59.58;101598.59;1684578;84;20214;-55
2021/03/29 03:56:00;;;;;;;;;;;;;;;4.58;59.80;101601.42;1684785;85;20213;-55
2021/03/29 03:59:04;;;;;;;;;;;;;;;4.54;59.77;101604.46;1684629;84;20232;-58
2021/03/29 04:02:12;;;;;;;;;;;;;;;4.53;59.96;101607.65;1684634;85;20214;-55
2021/03/29 04:05:17;;;;;;;;;;;;;;;4.58;60.06;101609.55;1684710;85;20221;-54
2021/03/29 04:08:24;;;;;;;;;;;;;;;4.62;60.04;101610.21;1684649;84;20233;-54
2021/03/29 04:11:29;;;;;;;;;;;;;;;4.67;60.03;101618.90;1684761;85;20206;-55
2021/03/29 04:14:32;;;;;;;;;;;;;;;4.71;60.06;101623.63;1684585;84;20277;-54
2021/03/29 04:17:36;;;;;;;;;;;;;;;4.74;60.11;101626.13;1684633;84;20230;-54
2021/03/29 04:20:42;;;;;;;;;;;;;;;4.74;60.17;101627.47;1684636;85;20218;-55
2021/03/29 04:23:47;;;;;;;;;;;;;;;4.77;60.10;101628.13;1684817;84;20230;-54
2021/03/29 04:26:53;;;;;;;;;;;;;;;4.82;60.02;101631.87;1684716;85;20246;-55
2021/03/29 04:29:59;;;;;;;;;;;;;;;4.90;59.90;101637.63;1684776;85;20241;-55
2021/03/29 04:33:03;;;;;;;;;;;;;;;4.99;59.77;101640.55;1684609;84;20230;-55
2021/03/29 04:36:08;;;;;;;;;;;;;;;5.07;59.62;101634.08;1684358;85;20221;-55
2021/03/29 04:39:13;;;;;;;;;;;;;;;5.16;59.39;101633.89;1684543;84;20505;-55
2021/03/29 04:42:17;;;;;;;;;;;;;;;5.26;59.23;101640.39;1684703;85;20221;-54
2021/03/29 04:45:24;;;;;;;;;;;;;;;5.33;59.08;101649.33;1690552;82;20237;-55
2021/03/29 04:48:29;;;;;;;;;;;;;;;5.42;58.82;101646.45;1716146;83;20218;-56
2021/03/29 04:51:33;;;;;;;;;;;;;;;5.50;58.63;101659.82;1744700;82;20296;-55
2021/03/29 04:54:36;;;;;;;;;;;;;;;5.60;58.50;101661.38;1727592;82;20531;-56
2021/03/29 04:57:40;;;;;;;;;;;;;;;5.70;58.36;101669.23;1744288;82;20248;-54
2021/03/29 05:00:43;;;;;;;;;;;;;;;5.78;58.23;101666.81;1744977;81;20282;-54
2021/03/29 05:03:47;;;;;;;;;;;;;;;5.88;57.99;101661.12;1737082;81;20660;-54
2021/03/29 05:06:52;;;;;;;;;;;;;;;5.97;57.87;101668.57;1753517;80;20255;-55
2021/03/29 05:10:02;;;;;;;;;;;;;;;6.07;57.85;101673.19;1745376;81;20222;-54
2021/03/29 05:13:08;;;;;;;;;;;;;;;6.19;57.35;101672.76;1741040;82;20217;-54
2021/03/29 05:16:14;;;;;;;;;;;;;;;6.33;56.89;101673.09;1734910;82;20202;-55
2021/03/29 05:19:18;;;;;;;;;;;;;;;6.44;56.33;101669.89;1739648;82;20216;-55
2021/03/29 05:22:24;;;;;;;;;;;;;;;6.56;56.08;101664.88;1741045;82;20284;-55
2021/03/29 05:25:31;;;;;;;;;;;;;;;6.68;55.86;101669.84;1739774;82;20573;-55
2021/03/29 05:28:35;;;;;;;;;;;;;;;6.79;55.60;101662.58;1737677;82;20205;-59
2021/03/29 05:31:40;;;;;;;;;;;;;;;6.91;55.40;101679.80;1743486;82;20242;-56
2021/03/29 05:34:43;;;;;;;;;;;;;;;7.01;55.19;101669.91;1745232;82;20282;-56
2021/03/29 05:37:50;;;;;;;;;;;;;;;7.13;55.11;101671.19;1743009;81;20311;-57
2021/03/29 05:40:56;;;;;;;;;;;;;;;7.27;55.04;101669.58;1715398;83;20317;-55
2021/03/29 05:44:02;;;;;;;;;;;;;;;7.40;54.95;101666.20;1685748;85;20225;-56
2021/03/29 05:47:09;;;;;;;;;;;;;;;7.54;54.67;101672.80;1693489;79;20229;-56
2021/03/29 05:50:15;;;;;;;;;;;;;;;7.70;54.65;101671.52;1698729;83;20642;-56
2021/03/29 05:53:19;;;;;;;;;;;;;;;7.83;54.45;101670.89;1697918;83;20234;-55
2021/03/29 05:56:24;;;;;;;;;;;;;;;7.94;54.34;101667.65;1698456;84;20575;-55
2021/03/29 05:59:33;;;;;;;;;;;;;;;8.03;54.10;101671.45;1698560;84;20209;-56
2021/03/29 06:02:38;;;;;;;;;;;;;;;8.13;53.94;101669.70;1698746;84;20221;-54
2021/03/29 06:05:47;;;;;;;;;;;;;;;8.26;53.65;101670.44;1705043;83;20249;-54
2021/03/29 06:08:55;;;;;;;;;;;;;;;8.38;53.65;101676.20;1711074;83;20278;-54
2021/03/29 06:12:00;;;;;;;;;;;;;;;8.48;53.32;101674.44;1723334;83;20563;-54
2021/03/29 06:15:08;;;;;;;;;;;;;;;8.58;53.22;101672.13;1714851;83;20217;-55
2021/03/29 06:18:23;;;;;;;;;;;;;;;8.68;53.29;101665.39;1706976;82;20213;-54
2021/03/29 06:21:28;;;;;;;;;;;;;;;8.81;53.19;101671.03;1716021;81;20285;-54
2021/03/29 06:24:31;;;;;;;;;;;;;;;8.93;53.03;101672.69;1702483;83;20375;-55
2021/03/29 06:27:40;;;;;;;;;;;;;;;9.06;52.75;101676.57;1753188;82;20208;-54
2021/03/29 06:30:45;;;;;;;;;;;;;;;9.18;52.33;101674.11;1753145;82;20308;-54
2021/03/29 06:33:55;;;;;;;;;;;;;;;9.29;52.05;101679.52;1721220;83;20280;-54
2021/03/29 06:37:00;;;;;;;;;;;;;;;9.39;51.47;101681.78;1741934;80;20265;-54
2021/03/29 06:40:10;;;;;;;;;;;;;;;9.50;50.90;101691.25;1768697;79;20192;-55
2021/03/29 06:43:27;;;;;;;;;;;;;;;9.60;50.41;101691.30;1760181;80;20217;-56
2021/03/29 06:46:34;;;;;;;;;;;;;;;9.69;50.10;101689.97;1752399;80;20497;-55
2021/03/29 06:49:50;;;;;;;;;;;;;;;9.85;49.63;101683.47;1723026;82;20204;-54
2021/03/29 06:52:53;;;;;;;;;;;;;;;9.98;48.78;101691.42;1739141;82;20557;-53
2021/03/29 06:56:00;;;;;;;;;;;;;;;10.12;47.54;101680.98;1742444;81;20220;-54
2021/03/29 06:59:13;;;;;;;;;;;;;;;10.23;47.04;101700.02;1736219;81;20216;-55
2021/03/29 07:02:19;;;;;;;;;;;;;;;10.31;46.34;101702.03;1700680;82;20200;-55
2021/03/29 07:05:25;;;;;;;;;;;;;;;10.39;45.91;101699.45;1735638;82;20244;-54
2021/03/29 07:08:31;;;;;;;;;;;;;;;10.49;45.23;101704.44;1738712;82;20211;-55
2021/03/29 07:11:35;;;;;;;;;;;;;;;10.58;44.72;101705.47;1750721;81;20298;-55
2021/03/29 07:14:38;;;;;;;;;;;;;;;10.69;44.41;101702.05;1771472;81;20218;-54
2021/03/29 07:17:45;;;;;;;;;;;;;;;10.77;43.63;101710.91;1772232;81;20213;-55
2021/03/29 07:20:52;;;;;;;;;;;;;;;10.86;43.83;101712.80;1772170;81;20218;-56
2021/03/29 07:23:57;;;;;;;;;;;;;;;10.95;43.57;101709.18;1772048;81;20246;-55
2021/03/29 07:27:06;;;;;;;;;;;;;;;11.07;42.41;101714.87;1749687;81;20280;-61
2021/03/29 07:30:17;;;;;;;;;;;;;;;11.13;42.01;101721.14;1740396;82;20217;-60
2021/03/29 07:33:27;;;;;;;;;;;;;;;11.17;41.80;101712.97;1740935;82;20557;-60
2021/03/29 07:36:55;;;;;;;;;;;;;;;11.23;41.77;101706.88;1723124;82;20571;-61
2021/03/29 07:40:00;;;;;;;;;;;;;;;11.29;41.23;101711.80;1742292;82;20235;-61
2021/03/29 07:43:20;;;;;;;;;;;;;;;11.35;41.54;101707.09;1737646;81;20553;-59
2021/03/29 07:46:25;;;;;;;;;;;;;;;11.41;41.31;101711.48;1740086;82;20235;-58
2021/03/29 07:49:52;;;;;;;;;;;;;;;11.48;40.43;101717.23;1740751;81;20234;-59
2021/03/29 07:53:20;;;;;;;;;;;;;;;11.52;40.43;101722.27;1731546;82;20207;-60
2021/03/29 07:56:47;;;;;;;;;;;;;;;11.53;39.82;101721.73;1744331;82;20247;-60
2021/03/29 07:59:54;;;;;;;;;;;;;;;11.56;39.84;101733.81;1746321;81;20304;-60
2021/03/29 08:03:20;;;;;;;;;;;;;;;11.61;39.46;101733.70;1739862;81;20227;-60
2021/03/29 08:06:44;;;;;;;;;;;;;;;11.67;39.45;101733.12;1742288;81;20205;-60
2021/03/29 08:09:51;;;;;;;;;;;;;;;11.73;39.34;101722.08;1748835;81;20223;-60
2021/03/29 08:13:07;;;;;;;;;;;;;;;11.76;39.14;101736.37;1739874;81;20237;-60
2021/03/29 08:16:13;;;;;;;;;;;;;;;11.82;39.11;101734.88;1744341;81;20292;-60
2021/03/29 08:19:25;;;;;;;;;;;;;;;11.92;39.52;101738.45;1753494;81;20215;-60
2021/03/29 08:22:30;;;;;;;;;;;;;;;12.01;38.91;101737.54;1747152;81;20208;-60
2021/03/29 08:25:37;;;;;;;;;;;;;;;12.04;38.72;101749.09;1741876;81;20218;-60
2021/03/29 08:29:16;;;;;;;;;;;;;;;12.11;39.07;101728.75;1709786;83;20295;-60
2021/03/29 08:32:40;;;;;;;;;;;;;;;12.17;38.60;101738.25;1741771;82;20223;-59
2021/03/29 08:35:46;;;;;;;;;;;;;;;12.24;37.55;101752.57;1744222;81;20691;-60
2021/03/29 08:38:56;;;;;;;;;;;;;;;12.32;37.44;101754.04;1735866;82;20295;-59
2021/03/29 08:42:02;;;;;;;;;;;;;;;12.39;37.01;101756.55;1745663;82;20215;-59
2021/03/29 08:45:07;;;;;;;;;;;;;;;12.44;36.62;101750.08;1742946;82;20652;-60
2021/03/29 08:48:13;;;;;;;;;;;;;;;12.49;36.26;101757.86;1748026;81;20211;-60
2021/03/29 08:51:28;;;;;;;;;;;;;;;12.52;36.24;101754.30;1743732;81;20208;-60
2021/03/29 08:54:32;;;;;;;;;;;;;;;12.57;36.38;101756.07;1747007;81;20254;-60
2021/03/29 08:57:37;;;;;;;;;;;;;;;12.60;36.83;101751.64;1743240;81;20204;-59
2021/03/29 09:00:43;;;;;;;;;;;;;;;12.66;36.56;101753.75;1740626;81;20203;-59
2021/03/29 09:03:49;;;;;;;;;;;;;;;12.75;37.02;101749.22;1736159;80;20229;-60
2021/03/29 09:07:00;;;;;;;;;;;;;;;12.87;36.56;101754.32;1744931;81;20247;-59
2021/03/29 09:10:06;;;;;;;;;;;;;;;12.97;35.79;101749.59;1740922;81;20227;-60
2021/03/29 09:13:14;;;;;;;;;;;;;;;13.03;36.10;101752.27;1739747;82;20244;-61
2021/03/29 09:16:18;;;;;;;;;;;;;;;13.08;35.93;101744.41;1755421;81;20208;-60
2021/03/29 09:19:26;;;;;;;;;;;;;;;13.13;36.09;101749.77;1764012;81;20498;-60
2021/03/29 09:22:37;;;;;;;;;;;;;;;13.18;35.52;101737.78;1764090;81;20216;-59
2021/03/29 09:25:43;;;;;;;;;;;;;;;13.23;35.42;101742.30;1764007;81;20211;-59
2021/03/29 09:28:50;;;;;;;;;;;;;;;13.29;35.36;101734.77;1726652;82;20224;-61
2021/03/29 09:31:55;;;;;;;;;;;;;;;13.33;35.06;101742.20;1711300;82;20207;-61
2021/03/29 09:35:01;;;;;;;;;;;;;;;13.39;34.71;101742.42;1732276;82;20219;-60
2021/03/29 09:38:05;;;;;;;;;;;;;;;13.43;34.33;101746.56;1738831;82;20216;-59
2021/03/29 09:41:22;;;;;;;;;;;;;;;13.47;34.22;101745.73;1703647;84;20216;-60
2021/03/29 09:44:33;;;;;;;;;;;;;;;13.52;34.28;101753.84;1739570;81;20235;-60
2021/03/29 09:47:36;;;;;;;;;;;;;;;13.59;33.73;101751.84;1740074;82;20196;-60
2021/03/29 09:50:42;;;;;;;;;;;;;;;13.57;32.94;101751.13;1710852;82;20234;-59
2021/03/29 09:53:47;;;;;;;;;;;;;;;13.61;33.16;101756.65;1686488;83;20614;-60
2021/03/29 09:56:52;;;;;;;;;;;;;;;13.70;33.20;101751.57;1687186;84;20213;-60
2021/03/29 09:59:56;;;;;;;;;;;;;;;13.80;33.22;101763.30;1743120;82;20215;-60
2021/03/29 10:03:09;;;;;;;;;;;;;;;13.89;33.74;101756.30;1730954;82;20223;-60
2021/03/29 10:06:18;;;;;;;;;;;;;;;14.00;33.77;101753.27;1706304;82;20224;-60
2021/03/29 10:09:22;;;;;;;;;;;;;;;14.07;32.42;101752.09;1726608;82;20248;-59
2021/03/29 10:12:33;;;;;;;;;;;;;;;14.05;32.63;101761.91;1737027;81;20203;-60
2021/03/29 10:15:41;;;;;;;;;;;;;;;14.08;32.05;101764.86;1752638;81;20199;-61
2021/03/29 10:18:47;;;;;;;;;;;;;;;14.12;32.23;101768.48;1747858;81;20211;-61
2021/03/29 10:22:14;;;;;;;;;;;;;;;14.12;32.26;101773.13;1759401;81;20220;-62
2021/03/29 10:25:23;;;;;;;;;;;;;;;14.21;32.78;101766.11;1753562;81;20211;-62
2021/03/29 10:28:27;;;;;;;;;;;;;;;14.18;32.44;101770.58;1735177;81;20619;-59
2021/03/29 10:31:32;;;;;;;;;;;;;;;14.28;32.36;101770.48;1716078;82;20593;-59
2021/03/29 10:34:38;;;;;;;;;;;;;;;14.38;32.16;101776.19;1715514;83;20347;-59
2021/03/29 10:37:41;;;;;;;;;;;;;;;14.48;32.25;101779.69;1755907;81;20562;-59
2021/03/29 10:40:47;;;;;;;;;;;;;;;14.60;31.58;101770.60;1766449;80;20247;-59
2021/03/29 10:43:53;;;;;;;;;;;;;;;14.67;32.22;101768.87;1759211;80;20246;-58
2021/03/29 10:46:58;;;;;;;;;;;;;;;14.78;31.61;101779.58;1750499;81;20237;-60
2021/03/29 10:50:03;;;;;;;;;;;;;;;14.94;31.86;101786.01;1754990;81;20552;-55
2021/03/29 10:53:10;;;;;;;;;;;;;;;15.06;30.96;101778.28;1719639;82;20200;-56
2021/03/29 10:56:15;;;;;;;;;;;;;;;15.16;31.04;101794.66;1746321;82;20228;-57
2021/03/29 10:59:21;;;;;;;;;;;;;;;15.32;31.00;101781.72;1748525;81;20584;-56
2021/03/29 11:02:28;;;;;;;;;;;;;;;15.42;30.86;101784.34;1751770;82;20197;-56
2021/03/29 11:05:35;;;;;;;;;;;;;;;15.42;30.43;101787.09;1754695;82;20604;-56
2021/03/29 11:08:38;;;;;;;;;;;;;;;15.52;30.13;101784.52;1753690;82;20199;-57
2021/03/29 11:11:43;;;;;;;;;;;;;;;15.64;30.19;101785.01;1755047;81;20220;-56
2021/03/29 11:14:47;;;;;;;;;;;;;;;15.75;29.93;101778.61;1745518;80;20211;-55
2021/03/29 11:17:53;;;;;;;;;;;;;;;15.90;28.83;101790.65;1758286;80;20266;-56
2021/03/29 11:20:58;;;;;;;;;;;;;;;15.96;29.14;101776.16;1770820;80;20557;-56
2021/03/29 11:24:04;;;;;;;;;;;;;;;15.93;29.08;101782.05;1756552;80;20278;-56
2021/03/29 11:27:11;;;;;;;;;;;;;;;16.00;28.65;101788.56;1754579;81;20193;-55
2021/03/29 11:30:17;;;;;;;;;;;;;;;16.16;29.59;101784.38;1751762;81;20310;-56
2021/03/29 11:33:22;;;;;;;;;;;;;;;16.35;28.98;101785.34;1749819;82;20215;-56
2021/03/29 11:36:26;;;;;;;;;;;;;;;16.42;27.42;101778.58;1753828;80;20555;-55
2021/03/29 11:39:31;;;;;;;;;;;;;;;16.34;28.49;101783.63;1769973;81;20251;-56
2021/03/29 11:42:34;;;;;;;;;;;;;;;16.43;27.69;101768.72;1760934;81;20211;-56
2021/03/29 11:45:39;;;;;;;;;;;;;;;16.41;27.98;101781.84;1749617;81;20226;-57
2021/03/29 11:48:44;;;;;;;;;;;;;;;16.26;27.18;101771.73;1750998;81;20212;-57
2021/03/29 11:51:50;;;;;;;;;;;;;;;16.02;27.65;101775.95;1754935;81;20211;-55
2021/03/29 11:54:55;;;;;;;;;;;;;;;15.97;27.67;101777.88;1709457;83;20220;-56
2021/03/29 11:58:01;;;;;;;;;;;;;;;16.04;27.71;101781.66;1708333;84;20201;-56
2021/03/29 12:01:22;;;;;;;;;;;;;;;16.12;27.72;101792.69;1714016;82;20324;-55
2021/03/29 12:04:19;;;;;;;;;;;;;;;16.26;27.31;101788.31;1721513;82;20209;-56
2021/03/29 12:07:30;;;;;;;;;;;;;;;16.31;26.94;101788.64;1703950;83;20292;-57
2021/03/29 12:13:49;;;;;;;;;;;;;;;16.54;27.57;101792.91;1714329;82;20564;-56
2021/03/29 12:16:56;;;;;;;;;;;;;;;16.72;27.56;101785.19;1719956;82;20252;-57
2021/03/29 12:20:02;;;;;;;;;;;;;;;16.77;27.38;101789.66;1719338;82;20603;-57
2021/03/29 12:23:06;;;;;;;;;;;;;;;16.86;27.75;101791.31;1722366;82;20291;-57
2021/03/29 12:26:11;;;;;;;;;;;;;;;16.87;27.10;101787.53;1722288;82;20559;-57
2021/03/29 12:29:20;;;;;;;;;;;;;;;16.63;27.56;101782.13;1713759;82;20228;-57
2021/03/29 12:32:26;;;;;;;;;;;;;;;16.63;28.33;101796.83;1713270;82;20830;-56
2021/03/29 12:35:33;;;;;;;;;;;;;;;16.58;28.11;101791.48;1719051;82;20837;-58
2021/03/29 12:38:39;;;;;;;;;;;;;;;16.55;28.11;101789.96;1719627;82;20216;-57
2021/03/29 12:41:48;;;;;;;;;;;;;;;16.65;28.77;101790.58;1726721;82;20418;-54
2021/03/29 12:44:51;;;;;;;;;;;;;;;16.79;28.36;101786.20;1726603;82;20312;-54
2021/03/29 12:47:55;;;;;;;;;;;;;;;16.82;29.18;101801.05;1719081;82;20215;-54
2021/03/29 12:50:59;;;;;;;;;;;;;;;16.99;29.04;101797.13;1718465;82;20610;-55
2021/03/29 12:54:07;;;;;;;;;;;;;;;17.17;29.06;101804.62;1729995;81;20225;-55
2021/03/29 12:57:13;;;;;;;;;;;;;;;17.28;28.25;101793.12;1756097;81;20215;-54
2021/03/29 13:00:20;;;;;;;;;;;;;;;17.27;27.38;101796.91;1757722;81;20227;-54
2021/03/29 13:03:30;;;;;;;;;;;;;;;17.16;27.99;101797.34;1751589;81;20235;-55
2021/03/29 13:06:36;;;;;;;;;;;;;;;17.09;26.89;101793.61;1744885;82;20215;-53
2021/03/29 13:12:47;;;;;;;;;;;;;;;17.17;28.22;101803.23;1761903;81;20412;-55
2021/03/29 13:15:57;;;;;;;;;;;;;;;17.11;26.48;101804.81;1743177;81;20246;-55
2021/03/29 13:19:01;;;;;;;;;;;;;;;17.08;26.40;101805.19;1744133;82;20211;-54
2021/03/29 13:22:06;;;;;;;;;;;;;;;17.06;26.68;101805.05;1744509;81;20268;-53
2021/03/29 13:25:14;;;;;;;;;;;;;;;17.04;26.83;101803.84;1733434;81;20552;-57
2021/03/29 13:28:19;;;;;;;;;;;;;;;17.12;26.58;101801.53;1744234;82;20207;-56
2021/03/29 13:31:25;;;;;;;;;;;;;;;17.09;26.32;101804.16;1745257;82;20188;-56
2021/03/29 13:34:31;;;;;;;;;;;;;;;17.01;27.20;101806.98;1745310;82;20207;-57
2021/03/29 13:37:35;;;;;;;;;;;;;;;17.06;27.84;101802.28;1715538;83;20237;-57
2021/03/29 13:40:41;;;;;;;;;;;;;;;17.19;28.11;101807.53;1741856;81;20558;-57
2021/03/29 13:43:48;;;;;;;;;;;;;;;17.30;27.63;101811.80;1739803;82;20195;-57
2021/03/29 13:46:53;;;;;;;;;;;;;;;17.31;27.44;101815.77;1740972;82;20243;-57
2021/03/29 13:50:00;;;;;;;;;;;;;;;17.25;26.62;101812.87;1737053;82;20259;-58
2021/03/29 13:53:05;;;;;;;;;;;;;;;17.03;27.07;101812.33;1740968;82;20576;-55
2021/03/29 13:56:10;;;;;;;;;;;;;;;16.97;27.65;101819.95;1743229;81;20211;-58
2021/03/29 13:59:16;;;;;;;;;;;;;;;16.99;27.79;101821.52;1744762;82;20208;-57
2021/03/29 14:02:22;;;;;;;;;;;;;;;17.03;27.49;101820.63;1741879;82;20244;-59
2021/03/29 14:05:36;;;;;;;;;;;;;;;16.92;27.46;101819.67;1739288;82;20256;-58
2021/03/29 14:08:41;;;;;;;;;;;;;;;16.92;28.13;101819.12;1740434;82;20285;-58
2021/03/29 14:11:50;;;;;;;;;;;;;;;17.05;27.92;101826.83;1741819;82;20306;-57
2021/03/29 14:14:56;;;;;;;;;;;;;;;17.06;28.10;101829.95;1739435;82;20256;-57
2021/03/29 14:18:02;;;;;;;;;;;;;;;17.00;28.01;101832.91;1739966;82;20288;-59
2021/03/29 14:21:09;;;;;;;;;;;;;;;16.95;28.01;101838.66;1742299;82;20217;-60
2021/03/29 14:24:15;;;;;;;;;;;;;;;16.77;27.74;101838.93;1745464;82;20207;-57
2021/03/29 14:27:21;;;;;;;;;;;;;;;16.54;28.06;101842.67;1736707;81;20221;-59
2021/03/29 14:30:26;;;;;;;;;;;;;;;16.32;28.10;101838.72;1737377;82;20195;-59
2021/03/29 14:33:35;;;;;;;;;;;;;;;16.06;28.81;101838.96;1741958;81;20258;-59
2021/03/29 14:36:52;;;;;;;;;;;;;;;16.02;29.28;101847.27;1744040;81;20246;-59
2021/03/29 14:40:12;;;;;;;;;;;;;;;16.06;29.16;101850.02;1739374;82;20336;-58
2021/03/29 14:43:08;;;;;;;;;;;;;;;16.16;29.52;101845.16;1734226;82;20575;-59
2021/03/29 14:46:10;;;;;;;;;;;;;;;16.27;29.14;101850.83;1744994;82;20556;-58
2021/03/29 14:49:13;;;;;;;;;;;;;;;16.17;28.69;101856.55;1745523;82;20218;-58
2021/03/29 14:52:19;;;;;;;;;;;;;;;15.99;28.65;101859.19;1734246;82;20230;-58
2021/03/29 14:55:27;;;;;;;;;;;;;;;15.80;29.16;101867.33;1735306;82;20299;-57
2021/03/29 14:58:32;;;;;;;;;;;;;;;15.68;29.39;101864.55;1734365;83;20210;-58
2021/03/29 15:01:36;;;;;;;;;;;;;;;15.67;29.58;101868.36;1730601;81;20281;-58
2021/03/29 15:04:44;;;;;;;;;;;;;;;15.88;29.15;101874.23;1731796;82;20278;-59
2021/03/29 15:07:48;;;;;;;;;;;;;;;15.80;29.46;101871.98;1732479;82;20289;-57
2021/03/29 15:10:53;;;;;;;;;;;;;;;15.45;29.93;101872.31;1731336;81;20234;-58
2021/03/29 15:13:57;;;;;;;;;;;;;;;15.09;30.80;101877.23;1732607;82;20250;-58
2021/03/29 15:17:02;;;;;;;;;;;;;;;14.85;31.27;101885.42;1731565;81;20214;-58
2021/03/29 15:20:06;;;;;;;;;;;;;;;14.60;31.33;101898.23;1731378;82;20305;-57
2021/03/29 15:23:09;;;;;;;;;;;;;;;14.33;31.30;101887.44;1731819;82;20697;-58
2021/03/29 15:26:14;;;;;;;;;;;;;;;14.23;31.45;101905.05;1731968;82;20214;-58
2021/03/29 15:29:19;;;;;;;;;;;;;;;14.09;31.59;101901.02;1731296;82;20313;-58
2021/03/29 15:32:22;;;;;;;;;;;;;;;13.98;32.14;101907.29;1731805;82;20293;-58
2021/03/29 15:35:26;;;;;;;;;;;;;;;13.83;31.85;101917.13;1731342;82;20242;-59
2021/03/29 15:38:30;;;;;;;;;;;;;;;13.66;32.08;101924.41;1721596;82;20287;-58
2021/03/29 15:41:35;;;;;;;;;;;;;;;13.42;32.24;101929.17;1689127;83;20249;-58
2021/03/29 15:44:40;;;;;;;;;;;;;;;13.21;32.80;101929.97;1712598;83;20252;-58
2021/03/29 15:47:44;;;;;;;;;;;;;;;13.07;33.29;101933.25;1712646;84;20247;-58
2021/03/29 15:50:50;;;;;;;;;;;;;;;12.97;32.89;101935.14;1712309;84;20290;-58
2021/03/29 15:53:53;;;;;;;;;;;;;;;12.83;32.93;101932.91;1712201;84;20227;-58
2021/03/29 15:57:00;;;;;;;;;;;;;;;12.64;33.11;101941.75;1714657;81;20266;-58
2021/03/29 16:00:03;;;;;;;;;;;;;;;12.43;33.18;101950.21;1718318;83;20213;-58
2021/03/29 16:03:13;;;;;;;;;;;;;;;12.24;33.77;101953.54;1724890;81;20220;-57
2021/03/29 16:06:18;;;;;;;;;;;;;;;12.11;34.11;101950.23;1746598;82;20694;-58
2021/03/29 16:09:21;;;;;;;;;;;;;;;11.97;34.55;101952.42;1748385;81;20234;-59